sensor_id;sensor_type;location;lat;lon;timestamp;pressure;altitude;pressure_sealevel;temperature;humidity
7836;BME280;3963;42.658;23.298;2023-05-07T00:00:40;59591.03;;;10.83;100.00
7836;BME280;3963;42.658;23.298;2023-05-07T00:03:07;59563.69;;;10.87;100.00
7836;BME280;3963;42.658;23.298;2023-05-07T00:05:36;59553.78;;;10.85;100.00
7836;BME280;3963;42.658;23.298;2023-05-07T00:08:03;59541.63;;;10.78;100.00
7836;BME280;3963;42.658;23.298;2023-05-07T00:10:30;59539.84;;;10.72;100.00
7836;BME280;3963;42.658;23.298;2023-05-07T00:12:57;59548.44;;;10.65;100.00
7836;BME280;3963;42.658;23.298;2023-05-07T00:15:24;59533.59;;;10.56;100.00
7836;BME280;3963;42.658;23.298;2023-05-07T00:17:50;59498.25;;;10.52;100.00
7836;BME280;3963;42.658;23.298;2023-05-07T00:20:17;59503.19;;;10.30;100.00
7836;BME280;3963;42.658;23.298;2023-05-07T00:22:45;59491.50;;;10.21;100.00
7836;BME280;3963;42.658;23.298;2023-05-07T00:25:12;59457.13;;;10.16;100.00
7836;BME280;3963;42.658;23.298;2023-05-07T00:27:39;59468.28;;;10.09;100.00
7836;BME280;3963;42.658;23.298;2023-05-07T00:30:08;59441.69;;;10.03;100.00
7836;BME280;3963;42.658;23.298;2023-05-07T00:32:34;59458.28;;;9.90;100.00
7836;BME280;3963;42.658;23.298;2023-05-07T00:35:02;59423.41;;;9.84;100.00
7836;BME280;3963;42.658;23.298;2023-05-07T00:37:29;59424.31;;;9.80;100.00
7836;BME280;3963;42.658;23.298;2023-05-07T00:39:59;59416.53;;;9.80;100.00
7836;BME280;3963;42.658;23.298;2023-05-07T00:42:26;59445.69;;;9.71;100.00
7836;BME280;3963;42.658;23.298;2023-05-07T00:44:53;59406.41;;;9.70;100.00
7836;BME280;3963;42.658;23.298;2023-05-07T00:47:20;59420.22;;;9.66;100.00
7836;BME280;3963;42.658;23.298;2023-05-07T00:49:47;59426.00;;;9.69;100.00
7836;BME280;3963;42.658;23.298;2023-05-07T00:52:16;59376.44;;;9.57;100.00
7836;BME280;3963;42.658;23.298;2023-05-07T00:54:43;59390.91;;;9.56;100.00
7836;BME280;3963;42.658;23.298;2023-05-07T00:57:14;59375.75;;;9.51;100.00
7836;BME280;3963;42.658;23.298;2023-05-07T00:59:41;59369.25;;;9.42;100.00
7836;BME280;3963;42.658;23.298;2023-05-07T01:02:08;59368.44;;;9.34;100.00
7836;BME280;3963;42.658;23.298;2023-05-07T01:04:34;59357.91;;;9.29;100.00
7836;BME280;3963;42.658;23.298;2023-05-07T01:07:02;59331.28;;;9.21;100.00
7836;BME280;3963;42.658;23.298;2023-05-07T01:09:30;59371.91;;;9.30;100.00
7836;BME280;3963;42.658;23.298;2023-05-07T01:11:58;59342.16;;;9.22;100.00
7836;BME280;3963;42.658;23.298;2023-05-07T01:14:28;59322.22;;;9.13;100.00
7836;BME280;3963;42.658;23.298;2023-05-07T01:16:56;59314.66;;;9.03;100.00
7836;BME280;3963;42.658;23.298;2023-05-07T01:19:23;59286.34;;;8.91;100.00
7836;BME280;3963;42.658;23.298;2023-05-07T01:21:57;59315.72;;;8.89;100.00
7836;BME280;3963;42.658;23.298;2023-05-07T01:24:31;59292.13;;;8.94;100.00
7836;BME280;3963;42.658;23.298;2023-05-07T01:26:58;59322.22;;;8.98;100.00
7836;BME280;3963;42.658;23.298;2023-05-07T01:29:28;59324.44;;;8.88;100.00
7836;BME280;3963;42.658;23.298;2023-05-07T01:31:57;59297.75;;;8.92;100.00
7836;BME280;3963;42.658;23.298;2023-05-07T01:34:25;59294.53;;;8.89;100.00
7836;BME280;3963;42.658;23.298;2023-05-07T01:36:53;59293.28;;;8.68;100.00
7836;BME280;3963;42.658;23.298;2023-05-07T01:39:24;59268.91;;;8.50;100.00
7836;BME280;3963;42.658;23.298;2023-05-07T01:41:55;59242.03;;;8.49;100.00
7836;BME280;3963;42.658;23.298;2023-05-07T01:44:22;59288.03;;;8.51;100.00
7836;BME280;3963;42.658;23.298;2023-05-07T01:46:50;59289.19;;;8.55;100.00
7836;BME280;3963;42.658;23.298;2023-05-07T01:49:17;59307.00;;;8.62;100.00
7836;BME280;3963;42.658;23.298;2023-05-07T01:51:44;59293.72;;;8.66;100.00
7836;BME280;3963;42.658;23.298;2023-05-07T01:54:11;59270.88;;;8.62;100.00
7836;BME280;3963;42.658;23.298;2023-05-07T01:56:38;59296.84;;;8.67;100.00
7836;BME280;3963;42.658;23.298;2023-05-07T01:59:07;59300.66;;;8.73;100.00
7836;BME280;3963;42.658;23.298;2023-05-07T02:01:34;59307.06;;;8.79;100.00
7836;BME280;3963;42.658;23.298;2023-05-07T02:04:01;59242.09;;;8.66;100.00
7836;BME280;3963;42.658;23.298;2023-05-07T02:06:28;59275.66;;;8.52;100.00
7836;BME280;3963;42.658;23.298;2023-05-07T02:08:56;59240.63;;;8.53;100.00
7836;BME280;3963;42.658;23.298;2023-05-07T02:11:23;59252.19;;;8.59;100.00
7836;BME280;3963;42.658;23.298;2023-05-07T02:13:50;59261.25;;;8.53;100.00
7836;BME280;3963;42.658;23.298;2023-05-07T02:16:19;59251.31;;;8.48;100.00
7836;BME280;3963;42.658;23.298;2023-05-07T02:18:47;59268.47;;;8.52;100.00
7836;BME280;3963;42.658;23.298;2023-05-07T02:21:13;59289.28;;;8.57;100.00
7836;BME280;3963;42.658;23.298;2023-05-07T02:23:40;59291.06;;;8.64;100.00
7836;BME280;3963;42.658;23.298;2023-05-07T02:26:07;59279.56;;;8.60;100.00
7836;BME280;3963;42.658;23.298;2023-05-07T02:28:34;59261.16;;;8.65;100.00
7836;BME280;3963;42.658;23.298;2023-05-07T02:31:02;59306.72;;;8.69;100.00
7836;BME280;3963;42.658;23.298;2023-05-07T02:33:30;59327.09;;;8.76;100.00
7836;BME280;3963;42.658;23.298;2023-05-07T02:36:05;59288.47;;;8.78;100.00
7836;BME280;3963;42.658;23.298;2023-05-07T02:38:31;59334.59;;;8.83;100.00
7836;BME280;3963;42.658;23.298;2023-05-07T02:40:58;59317.50;;;8.81;100.00
7836;BME280;3963;42.658;23.298;2023-05-07T02:43:25;59276.28;;;8.84;100.00
7836;BME280;3963;42.658;23.298;2023-05-07T02:46:00;59308.16;;;8.80;100.00
7836;BME280;3963;42.658;23.298;2023-05-07T02:48:27;59284.91;;;8.80;100.00
7836;BME280;3963;42.658;23.298;2023-05-07T02:50:57;59310.72;;;8.80;100.00
7836;BME280;3963;42.658;23.298;2023-05-07T02:53:24;59279.59;;;8.75;100.00
7836;BME280;3963;42.658;23.298;2023-05-07T02:55:52;59279.59;;;8.75;100.00
7836;BME280;3963;42.658;23.298;2023-05-07T02:58:20;59311.53;;;8.73;100.00
7836;BME280;3963;42.658;23.298;2023-05-07T03:00:47;59293.38;;;8.71;100.00
7836;BME280;3963;42.658;23.298;2023-05-07T03:03:15;59319.63;;;8.69;100.00
7836;BME280;3963;42.658;23.298;2023-05-07T03:05:42;59309.84;;;8.84;100.00
7836;BME280;3963;42.658;23.298;2023-05-07T03:08:12;59282.25;;;8.63;100.00
7836;BME280;3963;42.658;23.298;2023-05-07T03:10:39;59270.41;;;8.49;100.00
7836;BME280;3963;42.658;23.298;2023-05-07T03:13:06;59275.13;;;8.51;100.00
7836;BME280;3963;42.658;23.298;2023-05-07T03:15:32;59291.84;;;8.57;100.00
7836;BME280;3963;42.658;23.298;2023-05-07T03:18:00;59287.13;;;8.55;100.00
7836;BME280;3963;42.658;23.298;2023-05-07T03:20:27;59271.75;;;8.58;100.00
7836;BME280;3963;42.658;23.298;2023-05-07T03:22:54;59253.16;;;8.57;100.00
7836;BME280;3963;42.658;23.298;2023-05-07T03:25:22;59259.03;;;8.63;100.00
7836;BME280;3963;42.658;23.298;2023-05-07T03:27:49;59284.94;;;8.65;100.00
7836;BME280;3963;42.658;23.298;2023-05-07T03:30:16;59256.44;;;8.63;100.00
7836;BME280;3963;42.658;23.298;2023-05-07T03:32:42;59268.28;;;8.62;100.00
7836;BME280;3963;42.658;23.298;2023-05-07T03:35:09;59290.50;;;8.63;100.00
7836;BME280;3963;42.658;23.298;2023-05-07T03:37:36;59288.94;;;8.62;100.00
7836;BME280;3963;42.658;23.298;2023-05-07T03:40:03;59265.00;;;8.56;100.00
7836;BME280;3963;42.658;23.298;2023-05-07T03:42:32;59268.91;;;8.50;100.00
7836;BME280;3963;42.658;23.298;2023-05-07T03:44:59;59236.88;;;8.49;100.00
7836;BME280;3963;42.658;23.298;2023-05-07T03:47:25;59239.38;;;8.47;100.00
7836;BME280;3963;42.658;23.298;2023-05-07T03:49:52;59272.44;;;8.49;100.00
7836;BME280;3963;42.658;23.298;2023-05-07T03:52:20;59271.47;;;8.50;100.00
7836;BME280;3963;42.658;23.298;2023-05-07T03:54:52;59241.16;;;8.53;100.00
7836;BME280;3963;42.658;23.298;2023-05-07T03:57:19;59245.41;;;8.57;100.00
7836;BME280;3963;42.658;23.298;2023-05-07T03:59:47;59275.84;;;8.57;100.00
7836;BME280;3963;42.658;23.298;2023-05-07T04:02:14;59293.28;;;8.68;100.00
7836;BME280;3963;42.658;23.298;2023-05-07T04:04:40;59246.31;;;8.53;100.00
7836;BME280;3963;42.658;23.298;2023-05-07T04:07:07;59248.34;;;8.53;100.00
7836;BME280;3963;42.658;23.298;2023-05-07T04:09:35;59270.69;;;8.57;100.00
7836;BME280;3963;42.658;23.298;2023-05-07T04:12:02;59265.16;;;8.61;100.00
7836;BME280;3963;42.658;23.298;2023-05-07T04:14:29;59275.13;;;8.66;100.00
7836;BME280;3963;42.658;23.298;2023-05-07T04:16:58;59293.47;;;8.73;100.00
7836;BME280;3963;42.658;23.298;2023-05-07T04:19:25;59289.00;;;8.79;100.00
7836;BME280;3963;42.658;23.298;2023-05-07T04:21:52;59283.94;;;8.81;100.00
7836;BME280;3963;42.658;23.298;2023-05-07T04:24:19;59327.47;;;8.86;100.00
7836;BME280;3963;42.658;23.298;2023-05-07T04:26:45;59293.13;;;8.78;100.00
7836;BME280;3963;42.658;23.298;2023-05-07T04:29:12;59298.06;;;9.02;100.00
7836;BME280;3963;42.658;23.298;2023-05-07T04:31:39;59328.25;;;9.09;100.00
7836;BME280;3963;42.658;23.298;2023-05-07T04:34:08;59364.00;;;9.25;100.00
7836;BME280;3963;42.658;23.298;2023-05-07T04:36:36;59341.38;;;9.28;100.00
7836;BME280;3963;42.658;23.298;2023-05-07T04:39:03;59386.53;;;9.34;100.00
7836;BME280;3963;42.658;23.298;2023-05-07T04:41:30;59375.84;;;9.39;100.00
7836;BME280;3963;42.658;23.298;2023-05-07T04:43:57;59395.88;;;9.51;100.00
7836;BME280;3963;42.658;23.298;2023-05-07T04:46:24;59400.88;;;9.60;100.00
7836;BME280;3963;42.658;23.298;2023-05-07T04:48:51;59455.59;;;9.73;100.00
7836;BME280;3963;42.658;23.298;2023-05-07T04:51:21;59442.22;;;9.75;100.00
7836;BME280;3963;42.658;23.298;2023-05-07T04:53:48;59445.81;;;9.88;100.00
7836;BME280;3963;42.658;23.298;2023-05-07T04:56:15;59425.28;;;9.93;100.00
7836;BME280;3963;42.658;23.298;2023-05-07T04:58:42;59472.00;;;9.83;100.00
7836;BME280;3963;42.658;23.298;2023-05-07T05:01:10;59463.81;;;10.00;100.00
7836;BME280;3963;42.658;23.298;2023-05-07T05:03:37;59457.19;;;10.03;100.00
7836;BME280;3963;42.658;23.298;2023-05-07T05:06:05;59459.72;;;10.16;100.00
7836;BME280;3963;42.658;23.298;2023-05-07T05:08:33;59478.44;;;10.19;100.00
7836;BME280;3963;42.658;23.298;2023-05-07T05:11:00;59503.63;;;10.28;100.00
7836;BME280;3963;42.658;23.298;2023-05-07T05:13:27;59488.97;;;10.38;100.00
7836;BME280;3963;42.658;23.298;2023-05-07T05:15:55;59529.84;;;10.52;100.00
7836;BME280;3963;42.658;23.298;2023-05-07T05:18:22;59530.66;;;10.61;100.00
7836;BME280;3963;42.658;23.298;2023-05-07T05:20:49;59505.91;;;10.64;100.00
7836;BME280;3963;42.658;23.298;2023-05-07T05:23:18;59528.88;;;10.69;100.00
7836;BME280;3963;42.658;23.298;2023-05-07T05:25:47;59525.81;;;10.85;100.00
7836;BME280;3963;42.658;23.298;2023-05-07T05:28:14;59539.03;;;10.93;100.00
7836;BME280;3963;42.658;23.298;2023-05-07T05:30:41;59551.28;;;11.02;100.00
7836;BME280;3963;42.658;23.298;2023-05-07T05:33:07;59587.53;;;11.02;100.00
7836;BME280;3963;42.658;23.298;2023-05-07T05:35:34;59580.66;;;11.13;100.00
7836;BME280;3963;42.658;23.298;2023-05-07T05:38:01;59593.34;;;11.20;100.00
7836;BME280;3963;42.658;23.298;2023-05-07T05:40:28;59603.97;;;11.27;100.00
7836;BME280;3963;42.658;23.298;2023-05-07T05:42:56;59630.25;;;11.37;100.00
7836;BME280;3963;42.658;23.298;2023-05-07T05:45:24;59606.09;;;11.44;100.00
7836;BME280;3963;42.658;23.298;2023-05-07T05:47:51;59659.28;;;11.52;100.00
7836;BME280;3963;42.658;23.298;2023-05-07T05:50:17;59634.97;;;11.54;100.00
7836;BME280;3963;42.658;23.298;2023-05-07T05:52:44;59665.91;;;11.63;100.00
7836;BME280;3963;42.658;23.298;2023-05-07T05:55:11;59668.13;;;11.83;100.00
7836;BME280;3963;42.658;23.298;2023-05-07T05:57:38;59681.38;;;11.90;100.00
7836;BME280;3963;42.658;23.298;2023-05-07T06:00:08;59741.22;;;11.95;100.00
7836;BME280;3963;42.658;23.298;2023-05-07T06:02:35;59693.25;;;12.04;100.00
7836;BME280;3963;42.658;23.298;2023-05-07T06:05:03;59696.13;;;12.11;100.00
7836;BME280;3963;42.658;23.298;2023-05-07T06:07:30;59737.28;;;12.16;100.00
7836;BME280;3963;42.658;23.298;2023-05-07T06:09:57;59769.97;;;12.30;100.00
7836;BME280;3963;42.658;23.298;2023-05-07T06:12:24;59780.25;;;12.42;100.00
7836;BME280;3963;42.658;23.298;2023-05-07T06:14:51;59753.03;;;12.50;100.00
7836;BME280;3963;42.658;23.298;2023-05-07T06:17:19;59789.84;;;12.63;100.00
7836;BME280;3963;42.658;23.298;2023-05-07T06:19:46;59784.88;;;12.70;100.00
7836;BME280;3963;42.658;23.298;2023-05-07T06:22:13;59787.66;;;12.75;100.00
7836;BME280;3963;42.658;23.298;2023-05-07T06:24:40;59847.63;;;12.81;100.00
7836;BME280;3963;42.658;23.298;2023-05-07T06:27:07;59812.41;;;12.84;100.00
7836;BME280;3963;42.658;23.298;2023-05-07T06:29:33;59838.47;;;12.87;100.00
7836;BME280;3963;42.658;23.298;2023-05-07T06:32:07;59812.38;;;12.99;100.00
7836;BME280;3963;42.658;23.298;2023-05-07T06:34:36;59871.38;;;13.20;100.00
7836;BME280;3963;42.658;23.298;2023-05-07T06:37:03;59887.22;;;13.42;100.00
7836;BME280;3963;42.658;23.298;2023-05-07T06:39:30;59844.00;;;13.41;100.00
7836;BME280;3963;42.658;23.298;2023-05-07T06:41:57;59894.13;;;13.46;100.00
7836;BME280;3963;42.658;23.298;2023-05-07T06:44:24;59918.25;;;13.52;100.00
7836;BME280;3963;42.658;23.298;2023-05-07T06:46:51;59919.41;;;13.70;100.00
7836;BME280;3963;42.658;23.298;2023-05-07T06:49:18;59945.25;;;13.79;100.00
7836;BME280;3963;42.658;23.298;2023-05-07T06:51:46;59943.06;;;13.92;100.00
7836;BME280;3963;42.658;23.298;2023-05-07T06:54:13;59976.44;;;14.09;100.00
7836;BME280;3963;42.658;23.298;2023-05-07T06:56:40;60008.22;;;14.24;100.00
7836;BME280;3963;42.658;23.298;2023-05-07T06:59:07;60009.75;;;14.23;100.00
7836;BME280;3963;42.658;23.298;2023-05-07T07:01:33;60037.16;;;14.46;100.00
7836;BME280;3963;42.658;23.298;2023-05-07T07:04:00;60067.03;;;14.81;100.00
7836;BME280;3963;42.658;23.298;2023-05-07T07:06:27;60125.09;;;15.31;100.00
7836;BME280;3963;42.658;23.298;2023-05-07T07:08:56;60216.13;;;15.82;100.00
7836;BME280;3963;42.658;23.298;2023-05-07T07:11:23;60280.41;;;16.27;100.00
7836;BME280;3963;42.658;23.298;2023-05-07T07:13:50;60297.25;;;16.45;100.00
7836;BME280;3963;42.658;23.298;2023-05-07T07:16:17;60373.13;;;17.06;100.00
7836;BME280;3963;42.658;23.298;2023-05-07T07:18:43;60397.38;;;17.27;100.00
7836;BME280;3963;42.658;23.298;2023-05-07T07:21:10;60443.66;;;17.48;100.00
7836;BME280;3963;42.658;23.298;2023-05-07T07:23:37;60521.22;;;17.93;100.00
7836;BME280;3963;42.658;23.298;2023-05-07T07:26:05;60563.09;;;18.52;100.00
7836;BME280;3963;42.658;23.298;2023-05-07T07:28:32;60599.44;;;18.71;100.00
7836;BME280;3963;42.658;23.298;2023-05-07T07:30:59;60729.66;;;19.46;100.00
7836;BME280;3963;42.658;23.298;2023-05-07T07:33:25;60744.59;;;19.52;74.51
7836;BME280;3963;42.658;23.298;2023-05-07T07:35:52;60796.75;;;19.86;72.96
7836;BME280;3963;42.658;23.298;2023-05-07T07:38:19;60826.19;;;20.30;71.41
7836;BME280;3963;42.658;23.298;2023-05-07T07:40:47;60901.91;;;20.59;69.48
7836;BME280;3963;42.658;23.298;2023-05-07T07:43:16;60900.16;;;20.70;68.55
7836;BME280;3963;42.658;23.298;2023-05-07T07:45:43;60898.38;;;20.63;68.53
7836;BME280;3963;42.658;23.298;2023-05-07T07:48:11;60907.00;;;20.69;67.23
7836;BME280;3963;42.658;23.298;2023-05-07T07:50:39;60892.38;;;20.72;67.48
7836;BME280;3963;42.658;23.298;2023-05-07T07:53:07;60949.16;;;21.15;66.33
7836;BME280;3963;42.658;23.298;2023-05-07T07:55:38;61075.25;;;21.78;63.40
7836;BME280;3963;42.658;23.298;2023-05-07T07:58:05;61131.75;;;22.40;61.29
7836;BME280;3963;42.658;23.298;2023-05-07T08:00:33;61203.78;;;22.75;59.47
7836;BME280;3963;42.658;23.298;2023-05-07T08:03:00;61228.91;;;22.84;58.66
7836;BME280;3963;42.658;23.298;2023-05-07T08:05:28;61300.38;;;23.18;55.92
7836;BME280;3963;42.658;23.298;2023-05-07T08:07:55;61300.91;;;23.33;55.66
7836;BME280;3963;42.658;23.298;2023-05-07T08:10:22;61292.75;;;23.26;55.42
7836;BME280;3963;42.658;23.298;2023-05-07T08:12:49;61208.94;;;22.87;56.37
7836;BME280;3963;42.658;23.298;2023-05-07T08:15:16;61314.69;;;23.34;55.66
7836;BME280;3963;42.658;23.298;2023-05-07T08:17:45;61396.03;;;23.89;54.14
7836;BME280;3963;42.658;23.298;2023-05-07T08:20:11;61357.81;;;23.86;52.61
7836;BME280;3963;42.658;23.298;2023-05-07T08:22:38;61465.09;;;24.41;52.66
7836;BME280;3963;42.658;23.298;2023-05-07T08:25:05;61524.84;;;24.66;49.92
7836;BME280;3963;42.658;23.298;2023-05-07T08:27:32;61544.38;;;24.79;49.83
7836;BME280;3963;42.658;23.298;2023-05-07T08:29:59;61486.09;;;24.50;49.64
7836;BME280;3963;42.658;23.298;2023-05-07T08:32:26;61529.22;;;24.70;49.56
7836;BME280;3963;42.658;23.298;2023-05-07T08:34:54;61575.38;;;25.01;48.98
7836;BME280;3963;42.658;23.298;2023-05-07T08:37:21;61503.41;;;24.76;49.39
7836;BME280;3963;42.658;23.298;2023-05-07T08:39:48;61527.72;;;25.03;47.60
7836;BME280;3963;42.658;23.298;2023-05-07T08:42:16;61573.34;;;25.18;46.92
7836;BME280;3963;42.658;23.298;2023-05-07T08:44:45;61607.44;;;25.38;45.51
7836;BME280;3963;42.658;23.298;2023-05-07T08:47:12;61622.53;;;25.44;45.31
7836;BME280;3963;42.658;23.298;2023-05-07T08:49:39;61659.84;;;25.64;45.28
7836;BME280;3963;42.658;23.298;2023-05-07T08:52:08;61500.50;;;24.83;46.61
7836;BME280;3963;42.658;23.298;2023-05-07T08:54:37;61570.63;;;25.01;46.18
7836;BME280;3963;42.658;23.298;2023-05-07T08:57:04;61688.88;;;25.73;44.71
7836;BME280;3963;42.658;23.298;2023-05-07T08:59:31;61786.75;;;26.36;42.46
7836;BME280;3963;42.658;23.298;2023-05-07T09:01:58;61719.16;;;26.04;43.68
7836;BME280;3963;42.658;23.298;2023-05-07T09:04:24;61807.69;;;26.58;39.87
7836;BME280;3963;42.658;23.298;2023-05-07T09:06:52;61818.34;;;26.58;39.59
7836;BME280;3963;42.658;23.298;2023-05-07T09:09:21;61915.63;;;27.01;38.94
7836;BME280;3963;42.658;23.298;2023-05-07T09:11:56;61931.06;;;27.30;38.69
7836;BME280;3963;42.658;23.298;2023-05-07T09:14:24;61938.28;;;27.10;38.73
7836;BME280;3963;42.658;23.298;2023-05-07T09:16:52;61936.66;;;27.23;38.56
7836;BME280;3963;42.658;23.298;2023-05-07T09:19:22;61864.94;;;26.81;38.88
7836;BME280;3963;42.658;23.298;2023-05-07T09:21:50;61943.63;;;27.10;38.18
7836;BME280;3963;42.658;23.298;2023-05-07T09:24:25;61859.50;;;26.93;38.41
7836;BME280;3963;42.658;23.298;2023-05-07T09:26:53;61871.78;;;26.95;38.09
7836;BME280;3963;42.658;23.298;2023-05-07T09:29:20;61960.94;;;27.33;37.89
7836;BME280;3963;42.658;23.298;2023-05-07T09:31:47;62011.63;;;27.79;37.61
7836;BME280;3963;42.658;23.298;2023-05-07T09:34:14;61954.06;;;27.63;36.68
7836;BME280;3963;42.658;23.298;2023-05-07T09:36:43;61962.78;;;27.39;37.69
7836;BME280;3963;42.658;23.298;2023-05-07T09:39:10;61945.28;;;27.26;37.79
7836;BME280;3963;42.658;23.298;2023-05-07T09:41:47;61786.81;;;26.54;37.10
7836;BME280;3963;42.658;23.298;2023-05-07T09:44:15;61822.56;;;26.57;37.04
7836;BME280;3963;42.658;23.298;2023-05-07T09:46:43;61876.25;;;27.16;36.91
7836;BME280;3963;42.658;23.298;2023-05-07T09:49:15;61848.97;;;26.81;36.46
7836;BME280;3963;42.658;23.298;2023-05-07T09:51:47;61818.63;;;26.51;37.38
7836;BME280;3963;42.658;23.298;2023-05-07T09:54:15;61718.22;;;25.93;38.26
7836;BME280;3963;42.658;23.298;2023-05-07T09:56:44;61643.66;;;25.56;39.54
7836;BME280;3963;42.658;23.298;2023-05-07T09:59:13;61712.66;;;26.00;38.51
7836;BME280;3963;42.658;23.298;2023-05-07T10:01:42;61808.53;;;26.66;36.42
7836;BME280;3963;42.658;23.298;2023-05-07T10:04:10;61880.06;;;27.03;35.32
7836;BME280;3963;42.658;23.298;2023-05-07T10:06:37;61878.47;;;27.04;35.46
7836;BME280;3963;42.658;23.298;2023-05-07T10:09:05;61939.94;;;27.26;35.25
7836;BME280;3963;42.658;23.298;2023-05-07T10:11:32;61876.47;;;27.07;34.04
7836;BME280;3963;42.658;23.298;2023-05-07T10:14:02;61807.19;;;26.43;34.75
7836;BME280;3963;42.658;23.298;2023-05-07T10:16:32;61702.59;;;25.71;35.63
7836;BME280;3963;42.658;23.298;2023-05-07T10:19:02;61649.88;;;25.38;36.08
7836;BME280;3963;42.658;23.298;2023-05-07T10:21:30;61551.50;;;25.01;36.44
7836;BME280;3963;42.658;23.298;2023-05-07T10:23:59;61582.31;;;25.17;36.92
7836;BME280;3963;42.658;23.298;2023-05-07T10:26:29;61598.84;;;25.20;37.33
7836;BME280;3963;42.658;23.298;2023-05-07T10:29:03;61504.91;;;24.43;38.07
7836;BME280;3963;42.658;23.298;2023-05-07T10:31:50;61432.44;;;24.01;39.80
7836;BME280;3963;42.658;23.298;2023-05-07T10:34:22;61591.53;;;25.23;37.63
7836;BME280;3963;42.658;23.298;2023-05-07T10:36:51;61691.47;;;26.03;36.49
7836;BME280;3963;42.658;23.298;2023-05-07T10:39:19;61803.50;;;26.45;36.10
7836;BME280;3963;42.658;23.298;2023-05-07T10:41:46;61869.41;;;27.03;35.92
7836;BME280;3963;42.658;23.298;2023-05-07T10:44:25;61869.88;;;26.86;35.91
7836;BME280;3963;42.658;23.298;2023-05-07T10:47:04;61850.06;;;26.68;36.60
7836;BME280;3963;42.658;23.298;2023-05-07T10:49:34;61762.56;;;26.29;37.36
7836;BME280;3963;42.658;23.298;2023-05-07T10:52:15;61811.38;;;26.57;37.48
7836;BME280;3963;42.658;23.298;2023-05-07T10:54:42;61792.69;;;26.39;36.01
7836;BME280;3963;42.658;23.298;2023-05-07T11:27:38;61838.50;;;26.86;35.08
7836;BME280;3963;42.658;23.298;2023-05-07T11:30:07;61864.84;;;26.93;35.96
7836;BME280;3963;42.658;23.298;2023-05-07T11:32:34;61851.72;;;26.84;34.12
7836;BME280;3963;42.658;23.298;2023-05-07T11:35:01;61766.84;;;26.45;35.02
7836;BME280;3963;42.658;23.298;2023-05-07T11:37:28;61772.84;;;26.19;35.31
7836;BME280;3963;42.658;23.298;2023-05-07T11:40:03;61797.44;;;26.54;35.74
7836;BME280;3963;42.658;23.298;2023-05-07T11:42:32;61785.91;;;26.58;35.32
7836;BME280;3963;42.658;23.298;2023-05-07T11:45:03;61815.06;;;26.55;34.37
7836;BME280;3963;42.658;23.298;2023-05-07T11:47:31;61805.16;;;26.61;34.45
7836;BME280;3963;42.658;23.298;2023-05-07T11:50:03;61773.63;;;26.42;34.66
7836;BME280;3963;42.658;23.298;2023-05-07T11:52:30;61763.56;;;26.42;34.48
7836;BME280;3963;42.658;23.298;2023-05-07T11:54:58;61742.75;;;26.25;34.93
7836;BME280;3963;42.658;23.298;2023-05-07T11:57:26;61755.03;;;26.12;34.60
7836;BME280;3963;42.658;23.298;2023-05-07T11:59:53;61665.44;;;25.71;35.04
7836;BME280;3963;42.658;23.298;2023-05-07T12:02:22;61594.34;;;25.43;35.65
7836;BME280;3963;42.658;23.298;2023-05-07T12:04:50;61514.78;;;24.52;36.16
7836;BME280;3963;42.658;23.298;2023-05-07T12:07:17;61517.06;;;24.71;36.15
7836;BME280;3963;42.658;23.298;2023-05-07T12:09:45;61492.66;;;24.86;35.14
7836;BME280;3963;42.658;23.298;2023-05-07T12:12:13;61558.47;;;24.88;36.01
7836;BME280;3963;42.658;23.298;2023-05-07T12:14:42;61566.13;;;24.95;37.72
7836;BME280;3963;42.658;23.298;2023-05-07T12:17:09;61587.41;;;25.12;36.23
7836;BME280;3963;42.658;23.298;2023-05-07T12:19:39;61585.69;;;25.22;36.05
7836;BME280;3963;42.658;23.298;2023-05-07T12:22:07;61491.34;;;24.79;35.98
7836;BME280;3963;42.658;23.298;2023-05-07T12:24:44;61558.53;;;25.05;34.58
7836;BME280;3963;42.658;23.298;2023-05-07T12:27:11;61585.69;;;25.22;34.67
7836;BME280;3963;42.658;23.298;2023-05-07T12:29:44;61528.56;;;24.82;34.47
7836;BME280;3963;42.658;23.298;2023-05-07T12:32:13;61433.25;;;24.23;35.88
7836;BME280;3963;42.658;23.298;2023-05-07T12:34:42;61464.09;;;24.42;35.95
7836;BME280;3963;42.658;23.298;2023-05-07T12:37:09;61425.50;;;24.14;36.43
7836;BME280;3963;42.658;23.298;2023-05-07T12:39:36;61428.06;;;24.11;36.38
7836;BME280;3963;42.658;23.298;2023-05-07T12:42:03;61486.03;;;24.48;35.44
7836;BME280;3963;42.658;23.298;2023-05-07T12:44:31;61498.50;;;24.71;35.06
7836;BME280;3963;42.658;23.298;2023-05-07T12:47:01;61425.59;;;24.02;36.21
7836;BME280;3963;42.658;23.298;2023-05-07T12:49:29;61457.63;;;24.24;36.40
7836;BME280;3963;42.658;23.298;2023-05-07T12:51:59;61433.53;;;24.31;35.55
7836;BME280;3963;42.658;23.298;2023-05-07T12:54:29;61512.41;;;24.60;36.24
7836;BME280;3963;42.658;23.298;2023-05-07T12:57:03;61542.56;;;24.88;36.05
7836;BME280;3963;42.658;23.298;2023-05-07T12:59:31;61461.25;;;24.52;35.90
7836;BME280;3963;42.658;23.298;2023-05-07T13:01:58;61524.38;;;24.68;35.68
7836;BME280;3963;42.658;23.298;2023-05-07T13:04:25;61547.22;;;24.85;35.33
7836;BME280;3963;42.658;23.298;2023-05-07T13:06:52;61482.69;;;24.74;35.05
7836;BME280;3963;42.658;23.298;2023-05-07T13:09:22;61468.13;;;24.36;36.13
7836;BME280;3963;42.658;23.298;2023-05-07T13:11:49;61441.19;;;24.38;35.85
7836;BME280;3963;42.658;23.298;2023-05-07T13:14:15;61496.34;;;24.55;35.71
7836;BME280;3963;42.658;23.298;2023-05-07T13:16:43;61465.19;;;24.43;35.37
7836;BME280;3963;42.658;23.298;2023-05-07T13:19:09;61417.06;;;24.45;35.19
7836;BME280;3963;42.658;23.298;2023-05-07T13:21:36;61480.16;;;24.47;35.25
7836;BME280;3963;42.658;23.298;2023-05-07T13:24:03;61474.22;;;24.44;35.79
7836;BME280;3963;42.658;23.298;2023-05-07T13:26:34;61481.97;;;24.68;35.28
7836;BME280;3963;42.658;23.298;2023-05-07T13:29:01;61578.00;;;25.01;35.67
7836;BME280;3963;42.658;23.298;2023-05-07T13:31:28;61570.41;;;25.11;34.39
7836;BME280;3963;42.658;23.298;2023-05-07T13:33:55;61554.88;;;25.06;34.40
7836;BME280;3963;42.658;23.298;2023-05-07T13:36:22;61562.94;;;24.94;34.27
7836;BME280;3963;42.658;23.298;2023-05-07T13:38:48;61514.22;;;24.81;34.50
7836;BME280;3963;42.658;23.298;2023-05-07T13:41:15;61512.56;;;24.94;35.08